Time,TemperatureF,DewpointF,PressureIn,WindDirection,WindDirectionDegrees,WindSpeedMPH,WindSpeedGustMPH,Humidity,HourlyPrecipIn,Conditions,Clouds,dailyrainin,SoftwareType,DateUTC
2013-09-18 00:01:00,42.2,39.2,29.85,NNW,343,2.0,2.0,89,0.00,,---,0.00,VWS V14.01,2013-09-18 06:01:00,
2013-09-18 00:06:00,41.9,39.2,29.85,NNW,343,3.0,3.0,90,0.00,,---,0.00,VWS V14.01,2013-09-18 06:06:00,
2013-09-18 00:11:00,41.5,38.8,29.86,NNW,343,3.0,3.0,90,0.00,,---,0.00,VWS V14.01,2013-09-18 06:11:00,
2013-09-18 00:16:00,41.5,39.1,29.86,NNW,343,0.0,0.0,91,0.00,,---,0.00,VWS V14.01,2013-09-18 06:16:00,
2013-09-18 00:21:00,41.7,39.5,29.85,NNW,343,3.0,4.0,92,0.00,,---,0.00,VWS V14.01,2013-09-18 06:21:00,
2013-09-18 00:26:00,42.0,40.1,29.86,NNW,343,0.0,0.0,93,0.00,,---,0.00,VWS V14.01,2013-09-18 06:26:00,
2013-09-18 00:31:00,42.4,40.5,29.85,NNW,343,0.0,0.0,93,0.00,,---,0.00,VWS V14.01,2013-09-18 06:31:00,
2013-09-18 00:37:00,42.6,40.7,29.85,NNW,343,0.0,0.0,93,0.00,,---,0.00,VWS V14.01,2013-09-18 06:37:00,
2013-09-18 00:42:00,42.7,40.5,29.85,NNW,343,7.0,7.0,92,0.00,,---,0.00,VWS V14.01,2013-09-18 06:42:00,
2013-09-18 00:47:00,42.4,40.0,29.85,NNW,343,2.0,3.0,91,0.00,,---,0.00,VWS V14.01,2013-09-18 06:47:00,
2013-09-18 00:52:00,42.2,39.8,29.85,NNW,343,0.0,0.0,91,0.00,,---,0.00,VWS V14.01,2013-09-18 06:52:00,
2013-09-18 00:57:00,41.8,39.4,29.85,NNW,343,0.0,0.0,91,0.00,,---,0.00,VWS V14.01,2013-09-18 06:57:00,
2013-09-18 01:02:00,41.7,39.5,29.85,NNW,343,0.0,0.0,92,0.00,,---,0.00,VWS V14.01,2013-09-18 07:02:00,
2013-09-18 01:07:00,41.7,39.5,29.85,NNW,343,0.0,0.0,92,0.00,,---,0.00,VWS V14.01,2013-09-18 07:07:00,
2013-09-18 01:12:00,41.5,39.3,29.84,NNW,343,0.0,0.0,92,0.00,,---,0.00,VWS V14.01,2013-09-18 07:12:00,
2013-09-18 01:17:00,41.5,39.3,29.85,NNW,343,2.0,2.0,92,0.00,,---,0.00,VWS V14.01,2013-09-18 07:17:00,
2013-09-18 01:22:00,41.3,39.4,29.85,NNW,343,3.0,4.0,93,0.00,,---,0.00,VWS V14.01,2013-09-18 07:22:00,
2013-09-18 01:27:00,41.4,39.5,29.84,NNW,343,0.0,0.0,93,0.00,,---,0.00,VWS V14.01,2013-09-18 07:27:00,
2013-09-18 01:32:00,41.2,39.1,29.84,NNW,343,0.0,0.0,92,0.00,,---,0.00,VWS V14.01,2013-09-18 07:32:00,
2013-09-18 01:37:00,40.9,38.8,29.84,NNW,343,1.0,3.0,92,0.00,,---,0.00,VWS V14.01,2013-09-18 07:37:00,
2013-09-18 01:42:00,40.4,38.3,29.84,NNW,343,2.0,2.0,92,0.00,,---,0.00,VWS V14.01,2013-09-18 07:42:00,
2013-09-18 01:47:00,40.0,37.9,29.84,NNW,343,5.0,5.0,92,0.00,,---,0.00,VWS V14.01,2013-09-18 07:47:00,
2013-09-18 01:52:00,40.1,38.2,29.83,NNW,343,1.0,3.0,93,0.00,,---,0.00,VWS V14.01,2013-09-18 07:52:00,
2013-09-18 01:57:00,40.8,39.5,29.84,NNW,343,0.0,2.0,95,0.00,,---,0.00,VWS V14.01,2013-09-18 07:57:00,
2013-09-18 02:02:00,41.3,40.0,29.84,NNW,343,0.0,0.0,95,0.00,,---,0.00,VWS V14.01,2013-09-18 08:02:00,
2013-09-18 02:07:00,41.4,40.1,29.84,NNW,343,0.0,0.0,95,0.00,,---,0.00,VWS V14.01,2013-09-18 08:07:00,
2013-09-18 02:12:00,41.5,40.2,29.84,NNW,343,0.0,0.0,95,0.00,,---,0.00,VWS V14.01,2013-09-18 08:12:00,
2013-09-18 02:17:00,41.6,40.3,29.86,NNW,343,4.0,4.0,95,0.00,,---,0.00,VWS V14.01,2013-09-18 08:17:00,
2013-09-18 02:22:00,41.8,40.5,29.85,NNW,343,0.0,0.0,95,0.00,,---,0.00,VWS V14.01,2013-09-18 08:22:00,
2013-09-18 02:27:00,42.2,41.1,29.84,NNW,343,2.0,3.0,96,0.00,,---,0.00,VWS V14.01,2013-09-18 08:27:00,
2013-09-18 02:32:00,42.4,41.1,29.84,NNW,343,2.0,3.0,95,0.00,,---,0.00,VWS V14.01,2013-09-18 08:32:00,
2013-09-18 02:37:00,42.1,40.8,29.84,NNW,343,0.0,0.0,95,0.00,,---,0.00,VWS V14.01,2013-09-18 08:37:00,
2013-09-18 02:42:00,41.8,40.5,29.85,NNW,343,2.0,2.0,95,0.00,,---,0.00,VWS V14.01,2013-09-18 08:42:00,
2013-09-18 02:47:00,41.8,40.5,29.85,NNW,343,3.0,3.0,95,0.01,,---,0.01,VWS V14.01,2013-09-18 08:47:00,
2013-09-18 02:52:00,41.8,40.5,29.85,NNW,343,1.0,1.0,95,0.01,,---,0.01,VWS V14.01,2013-09-18 08:52:00,
2013-09-18 02:57:00,41.9,40.6,29.84,NNW,344,0.0,0.0,95,0.01,,---,0.01,VWS V14.01,2013-09-18 08:57:00,
2013-09-18 03:02:00,41.8,40.5,29.84,NNW,344,4.0,5.0,95,0.01,,---,0.01,VWS V14.01,2013-09-18 09:02:00,
2013-09-18 03:07:00,41.7,40.4,29.84,NNW,344,2.0,3.0,95,0.01,,---,0.01,VWS V14.01,2013-09-18 09:07:00,
2013-09-18 03:12:00,41.7,40.4,29.83,NNW,344,3.0,4.0,95,0.01,,---,0.01,VWS V14.01,2013-09-18 09:12:00,
2013-09-18 03:17:00,41.8,40.5,29.83,NNW,344,1.0,2.0,95,0.01,,---,0.01,VWS V14.01,2013-09-18 09:17:00,
2013-09-18 03:22:00,42.0,40.7,29.82,NNW,344,1.0,2.0,95,0.01,,---,0.01,VWS V14.01,2013-09-18 09:22:00,
2013-09-18 03:27:00,42.1,40.8,29.82,NNW,344,0.0,2.0,95,0.01,,---,0.01,VWS V14.01,2013-09-18 09:27:00,
2013-09-18 03:32:00,42.1,40.8,29.81,NNW,344,0.0,0.0,95,0.01,,---,0.01,VWS V14.01,2013-09-18 09:32:00,
2013-09-18 03:37:00,42.2,40.9,29.81,NNW,344,3.0,3.0,95,0.01,,---,0.01,VWS V14.01,2013-09-18 09:37:00,
2013-09-18 03:42:00,42.3,41.0,29.81,NNW,344,0.0,0.0,95,0.01,,---,0.01,VWS V14.01,2013-09-18 09:42:00,
2013-09-18 03:47:00,42.3,41.0,29.82,NNW,344,0.0,0.0,95,0.00,,---,0.01,VWS V14.01,2013-09-18 09:47:00,
2013-09-18 03:52:00,42.4,41.1,29.81,NNW,344,4.0,4.0,95,0.00,,---,0.01,VWS V14.01,2013-09-18 09:52:00,
2013-09-18 03:57:00,42.5,41.2,29.81,NNW,341,6.0,6.0,95,0.00,,---,0.01,VWS V14.01,2013-09-18 09:57:00,
2013-09-18 04:02:00,42.2,40.6,29.81,WSW,254,0.0,2.0,94,0.00,,---,0.01,VWS V14.01,2013-09-18 10:02:00,
2013-09-18 04:07:00,42.2,40.6,29.82,WSW,254,0.0,0.0,94,0.00,,---,0.01,VWS V14.01,2013-09-18 10:07:00,
2013-09-18 04:13:00,42.2,40.9,29.83,WSW,254,5.0,5.0,95,0.00,,---,0.01,VWS V14.01,2013-09-18 10:13:00,
2013-09-18 04:18:00,42.7,41.4,29.81,NNE,21,5.0,8.0,95,0.00,,---,0.01,VWS V14.01,2013-09-18 10:18:00,
2013-09-18 04:23:00,43.2,41.9,29.81,NNE,17,2.0,6.0,95,0.00,,---,0.01,VWS V14.01,2013-09-18 10:23:00,
2013-09-18 04:28:00,43.6,42.3,29.81,NNE,16,0.0,0.0,95,0.00,,---,0.01,VWS V14.01,2013-09-18 10:28:00,
2013-09-18 04:33:00,43.7,42.1,29.82,NNE,17,3.0,3.0,94,0.00,,---,0.01,VWS V14.01,2013-09-18 10:33:00,
2013-09-18 04:38:00,43.6,41.7,29.82,East,85,2.0,2.0,93,0.00,,---,0.01,VWS V14.01,2013-09-18 10:38:00,
2013-09-18 04:43:00,43.5,41.6,29.82,East,85,0.0,0.0,93,0.01,,---,0.02,VWS V14.01,2013-09-18 10:43:00,
2013-09-18 04:48:00,43.3,41.4,29.83,East,85,3.0,3.0,93,0.01,,---,0.02,VWS V14.01,2013-09-18 10:48:00,
2013-09-18 04:53:00,43.2,41.3,29.82,East,84,3.0,3.0,93,0.01,,---,0.02,VWS V14.01,2013-09-18 10:53:00,
2013-09-18 04:58:00,43.2,41.3,29.82,East,84,3.0,5.0,93,0.02,,---,0.03,VWS V14.01,2013-09-18 10:58:00,
2013-09-18 05:03:00,43.3,41.7,29.82,East,84,5.0,5.0,94,0.04,,---,0.05,VWS V14.01,2013-09-18 11:03:00,
2013-09-18 05:08:00,43.4,41.8,29.82,East,84,6.0,6.0,94,0.04,,---,0.05,VWS V14.01,2013-09-18 11:08:00,
2013-09-18 05:13:00,43.5,41.9,29.83,East,84,5.0,5.0,94,0.04,,---,0.05,VWS V14.01,2013-09-18 11:13:00,
2013-09-18 05:18:00,43.6,42.0,29.82,North,5,5.0,6.0,94,0.04,,---,0.05,VWS V14.01,2013-09-18 11:18:00,
2013-09-18 05:23:00,43.6,42.0,29.82,North,5,4.0,5.0,94,0.04,,---,0.05,VWS V14.01,2013-09-18 11:23:00,
2013-09-18 05:28:00,43.7,42.1,29.81,North,5,1.0,3.0,94,0.04,,---,0.05,VWS V14.01,2013-09-18 11:28:00,
2013-09-18 05:33:00,43.8,42.2,29.83,SSW,196,3.0,4.0,94,0.04,,---,0.05,VWS V14.01,2013-09-18 11:33:00,
2013-09-18 05:38:00,43.7,42.1,29.82,West,277,0.0,3.0,94,0.08,,---,0.09,VWS V14.01,2013-09-18 11:38:00,
2013-09-18 05:43:00,43.7,42.1,29.83,SW,223,7.0,8.0,94,0.07,,---,0.09,VWS V14.01,2013-09-18 11:43:00,
2013-09-18 05:48:00,43.6,42.3,29.83,SW,223,5.0,5.0,95,0.07,,---,0.09,VWS V14.01,2013-09-18 11:48:00,
2013-09-18 05:53:00,43.5,41.9,29.83,SW,223,2.0,4.0,94,0.09,,---,0.11,VWS V14.01,2013-09-18 11:53:00,
2013-09-18 05:58:00,43.5,42.2,29.83,SW,223,0.0,0.0,95,0.08,,---,0.11,VWS V14.01,2013-09-18 11:58:00,
2013-09-18 06:03:00,43.5,42.2,29.83,SW,223,0.0,0.0,95,0.06,,---,0.11,VWS V14.01,2013-09-18 12:03:00,
2013-09-18 06:08:00,43.4,42.1,29.84,SW,223,0.0,4.0,95,0.06,,---,0.11,VWS V14.01,2013-09-18 12:08:00,
2013-09-18 06:13:00,43.4,42.1,29.83,SW,223,4.0,4.0,95,0.07,,---,0.12,VWS V14.01,2013-09-18 12:13:00,
2013-09-18 06:18:00,43.3,42.0,29.84,SW,223,0.0,0.0,95,0.07,,---,0.12,VWS V14.01,2013-09-18 12:18:00,
2013-09-18 06:23:00,43.3,42.0,29.84,SW,223,0.0,2.0,95,0.07,,---,0.12,VWS V14.01,2013-09-18 12:23:00,
2013-09-18 06:28:00,43.2,41.9,29.84,North,5,5.0,5.0,95,0.07,,---,0.12,VWS V14.01,2013-09-18 12:28:00,
2013-09-18 06:33:00,43.3,42.0,29.84,North,5,3.0,3.0,95,0.06,,---,0.12,VWS V14.01,2013-09-18 12:33:00,
2013-09-18 06:38:00,43.3,42.0,29.84,North,5,2.0,2.0,95,0.03,,---,0.12,VWS V14.01,2013-09-18 12:38:00,
2013-09-18 06:43:00,43.2,41.9,29.85,North,5,0.0,1.0,95,0.03,,---,0.12,VWS V14.01,2013-09-18 12:43:00,
2013-09-18 06:48:00,43.1,41.8,29.84,North,5,0.0,0.0,95,0.03,,---,0.12,VWS V14.01,2013-09-18 12:48:00,
2013-09-18 06:53:00,43.2,41.9,29.84,SW,221,3.0,4.0,95,0.01,,---,0.12,VWS V14.01,2013-09-18 12:53:00,
2013-09-18 06:58:00,43.1,41.8,29.84,NE,51,5.0,5.0,95,0.01,,---,0.12,VWS V14.01,2013-09-18 12:58:00,
2013-09-18 07:03:00,42.8,41.5,29.84,NE,51,2.0,2.0,95,0.01,,---,0.12,VWS V14.01,2013-09-18 13:03:00,
2013-09-18 07:08:00,42.8,41.5,29.84,NNW,344,4.0,4.0,95,0.01,,---,0.12,VWS V14.01,2013-09-18 13:08:00,
2013-09-18 07:13:00,43.1,42.0,29.85,NNW,346,0.0,0.0,96,0.00,,---,0.12,VWS V14.01,2013-09-18 13:13:00,
2013-09-18 07:18:00,43.3,42.2,29.85,NNW,344,5.0,5.0,96,0.00,,---,0.12,VWS V14.01,2013-09-18 13:18:00,
2013-09-18 07:23:00,43.5,42.4,29.85,East,97,0.0,0.0,96,0.00,,---,0.12,VWS V14.01,2013-09-18 13:23:00,
2013-09-18 07:28:00,43.6,42.5,29.85,NE,44,0.0,0.0,96,0.00,,---,0.12,VWS V14.01,2013-09-18 13:28:00,
2013-09-18 07:33:00,43.6,42.5,29.85,NE,43,3.0,3.0,96,0.00,,---,0.12,VWS V14.01,2013-09-18 13:33:00,
2013-09-18 07:38:00,43.7,42.6,29.85,WNW,298,0.0,0.0,96,0.00,,---,0.12,VWS V14.01,2013-09-18 13:38:00,
2013-09-18 07:43:00,43.8,42.7,29.84,WNW,298,0.0,0.0,96,0.00,,---,0.12,VWS V14.01,2013-09-18 13:43:00,
2013-09-18 07:49:00,44.0,42.9,29.84,WNW,298,0.0,0.0,96,0.00,,---,0.12,VWS V14.01,2013-09-18 13:49:00,
2013-09-18 07:54:00,44.4,43.3,29.84,WNW,298,0.0,0.0,96,0.00,,---,0.12,VWS V14.01,2013-09-18 13:54:00,
2013-09-18 07:59:00,44.7,43.6,29.84,WNW,298,0.0,0.0,96,0.00,,---,0.12,VWS V14.01,2013-09-18 13:59:00,
2013-09-18 08:04:00,44.6,43.5,29.84,WNW,298,1.0,3.0,96,0.00,,---,0.12,VWS V14.01,2013-09-18 14:04:00,
2013-09-18 08:09:00,44.5,43.4,29.85,WNW,298,0.0,0.0,96,0.00,,---,0.12,VWS V14.01,2013-09-18 14:09:00,
2013-09-18 08:14:00,44.5,43.4,29.84,WNW,298,2.0,3.0,96,0.00,,---,0.12,VWS V14.01,2013-09-18 14:14:00,
2013-09-18 08:19:00,44.6,43.5,29.84,WNW,298,0.0,3.0,96,0.00,,---,0.12,VWS V14.01,2013-09-18 14:19:00,
2013-09-18 08:24:00,44.7,43.6,29.84,WNW,298,0.0,0.0,96,0.00,,---,0.12,VWS V14.01,2013-09-18 14:24:00,
2013-09-18 08:29:00,45.0,43.9,29.84,WNW,302,0.0,2.0,96,0.00,,---,0.12,VWS V14.01,2013-09-18 14:29:00,
2013-09-18 08:34:00,45.1,44.0,29.84,WNW,302,0.0,3.0,96,0.00,,---,0.12,VWS V14.01,2013-09-18 14:34:00,
2013-09-18 08:39:00,45.2,44.1,29.84,WNW,302,0.0,0.0,96,0.00,,---,0.12,VWS V14.01,2013-09-18 14:39:00,
2013-09-18 08:44:00,45.2,44.1,29.84,WNW,302,3.0,3.0,96,0.00,,---,0.12,VWS V14.01,2013-09-18 14:44:00,
2013-09-18 08:49:00,45.9,44.8,29.84,WNW,302,0.0,0.0,96,0.00,,---,0.12,VWS V14.01,2013-09-18 14:49:00,
2013-09-18 08:54:00,46.7,45.3,29.83,WNW,302,2.0,2.0,95,0.00,,---,0.12,VWS V14.01,2013-09-18 14:54:00,
2013-09-18 08:59:00,47.6,46.0,29.83,WNW,302,0.0,0.0,94,0.00,,---,0.12,VWS V14.01,2013-09-18 14:59:00,
2013-09-18 09:04:00,48.0,45.5,29.83,WNW,302,0.0,0.0,91,0.00,,---,0.12,VWS V14.01,2013-09-18 15:04:00,
2013-09-18 09:09:00,48.1,45.9,29.83,WNW,302,3.0,4.0,92,0.00,,---,0.12,VWS V14.01,2013-09-18 15:09:00,
2013-09-18 09:14:00,47.9,45.7,29.83,ENE,77,0.0,0.0,92,0.00,,---,0.12,VWS V14.01,2013-09-18 15:14:00,
2013-09-18 09:19:00,48.2,47.7,29.83,SSW,203,0.0,0.0,98,0.00,,---,0.12,VWS V14.01,2013-09-18 15:19:00,
2013-09-18 09:24:00,48.3,46.1,29.83,SSW,204,2.0,3.0,92,0.00,,---,0.12,VWS V14.01,2013-09-18 15:24:00,
2013-09-18 09:29:00,49.0,46.5,29.83,SE,128,8.0,10.0,91,0.00,,---,0.12,VWS V14.01,2013-09-18 15:29:00,
2013-09-18 09:34:00,49.5,46.7,29.83,South,178,8.0,9.0,90,0.00,,---,0.12,VWS V14.01,2013-09-18 15:34:00,
2013-09-18 09:39:00,50.8,48.0,29.83,SSE,162,5.0,6.0,90,0.00,,---,0.12,VWS V14.01,2013-09-18 15:39:00,
2013-09-18 09:44:00,51.4,47.7,29.83,SSE,164,6.0,8.0,87,0.00,,---,0.12,VWS V14.01,2013-09-18 15:44:00,
2013-09-18 09:50:00,50.9,47.5,29.83,South,175,9.0,11.0,88,0.00,,---,0.12,VWS V14.01,2013-09-18 15:50:00,
2013-09-18 09:55:00,50.7,47.0,29.83,East,101,6.0,11.0,87,0.00,,---,0.12,VWS V14.01,2013-09-18 15:55:00,
2013-09-18 10:00:00,51.8,48.4,29.83,SSW,192,7.0,8.0,88,0.00,,---,0.12,VWS V14.01,2013-09-18 16:00:00,
2013-09-18 10:01:00,51.9,48.2,29.83,SSW,207,8.0,9.0,87,0.00,,---,0.12,VWS V14.01,2013-09-18 16:01:00,
2013-09-18 10:06:00,52.5,46.8,29.83,SSE,151,0.0,4.0,81,0.00,,---,0.12,VWS V14.01,2013-09-18 16:06:00,
2013-09-18 10:11:00,53.9,44.3,29.83,SE,144,0.0,3.0,70,0.00,,---,0.12,VWS V14.01,2013-09-18 16:11:00,
2013-09-18 10:16:00,55.9,44.7,29.83,SW,214,3.0,5.0,66,0.00,,---,0.12,VWS V14.01,2013-09-18 16:16:00,
2013-09-18 10:21:00,57.4,45.8,29.83,SE,143,5.0,8.0,65,0.00,,---,0.12,VWS V14.01,2013-09-18 16:21:00,
2013-09-18 10:26:00,58.8,45.4,29.83,WSW,239,13.0,17.0,61,0.00,,---,0.12,VWS V14.01,2013-09-18 16:26:00,
2013-09-18 10:31:00,58.4,42.8,29.82,WSW,238,16.0,17.0,56,0.00,,---,0.12,VWS V14.01,2013-09-18 16:31:00,
2013-09-18 10:36:00,59.0,44.3,29.82,SSW,208,16.0,17.0,58,0.00,,---,0.12,VWS V14.01,2013-09-18 16:36:00,
2013-09-18 10:41:00,59.9,43.7,29.82,West,264,18.0,24.0,55,0.00,,---,0.12,VWS V14.01,2013-09-18 16:41:00,
2013-09-18 10:46:00,59.3,41.2,29.82,WSW,248,6.0,14.0,51,0.00,,---,0.12,VWS V14.01,2013-09-18 16:46:00,
2013-09-18 10:51:00,59.4,41.8,29.81,WSW,257,8.0,17.0,52,0.00,,---,0.12,VWS V14.01,2013-09-18 16:51:00,
2013-09-18 10:56:00,60.0,41.8,29.81,WSW,244,4.0,7.0,51,0.00,,---,0.12,VWS V14.01,2013-09-18 16:56:00,
2013-09-18 11:01:00,60.6,40.8,29.82,SSW,213,1.0,1.0,48,0.00,,---,0.12,VWS V14.01,2013-09-18 17:01:00,
2013-09-18 11:06:00,61.0,40.7,29.81,SW,232,10.0,11.0,47,0.00,,---,0.12,VWS V14.01,2013-09-18 17:06:00,
2013-09-18 11:11:00,60.4,40.6,29.81,WSW,252,11.0,13.0,48,0.00,,---,0.12,VWS V14.01,2013-09-18 17:11:00,
2013-09-18 11:16:00,61.1,40.2,29.81,West,259,1.0,6.0,46,0.00,,---,0.12,VWS V14.01,2013-09-18 17:16:00,
2013-09-18 11:21:00,60.9,39.4,29.81,NNW,337,11.0,11.0,45,0.00,,---,0.12,VWS V14.01,2013-09-18 17:21:00,
2013-09-18 11:26:00,60.1,40.4,29.81,SW,229,8.0,14.0,48,0.00,,---,0.12,VWS V14.01,2013-09-18 17:26:00,
2013-09-18 11:31:00,59.7,40.5,29.81,WNW,292,8.0,11.0,49,0.00,,---,0.12,VWS V14.01,2013-09-18 17:31:00,
2013-09-18 11:36:00,59.4,38.6,29.80,SW,223,4.0,7.0,46,0.00,,---,0.12,VWS V14.01,2013-09-18 17:36:00,
2013-09-18 11:41:00,59.4,41.3,29.81,SW,217,15.0,15.0,51,0.00,,---,0.12,VWS V14.01,2013-09-18 17:41:00,
2013-09-18 11:46:00,59.1,38.9,29.81,West,275,0.0,2.0,47,0.00,,---,0.12,VWS V14.01,2013-09-18 17:46:00,
2013-09-18 11:51:00,59.2,40.1,29.81,West,275,1.0,1.0,49,0.00,,---,0.12,VWS V14.01,2013-09-18 17:51:00,
2013-09-18 11:56:00,59.2,42.1,29.81,West,269,5.0,5.0,53,0.00,,---,0.12,VWS V14.01,2013-09-18 17:56:00,
2013-09-18 12:01:00,60.5,40.7,29.80,SSW,196,11.0,11.0,48,0.00,,---,0.12,VWS V14.01,2013-09-18 18:01:00,
2013-09-18 12:06:00,61.4,43.6,29.80,SE,138,7.0,7.0,52,0.00,,---,0.12,VWS V14.01,2013-09-18 18:06:00,
2013-09-18 12:11:00,61.2,41.9,29.79,ESE,110,4.0,5.0,49,0.00,,---,0.12,VWS V14.01,2013-09-18 18:11:00,
2013-09-18 12:16:00,61.9,42.5,29.80,SSE,163,8.0,8.0,49,0.00,,---,0.12,VWS V14.01,2013-09-18 18:16:00,
2013-09-18 12:21:00,60.2,39.9,29.79,SSE,168,6.0,7.0,47,0.00,,---,0.12,VWS V14.01,2013-09-18 18:21:00,
2013-09-18 12:26:00,59.2,40.6,29.78,SSW,197,12.0,17.0,50,0.00,,---,0.12,VWS V14.01,2013-09-18 18:26:00,
2013-09-18 12:31:00,60.6,41.4,29.79,South,184,11.0,12.0,49,0.00,,---,0.12,VWS V14.01,2013-09-18 18:31:00,
2013-09-18 12:36:00,60.7,39.3,29.79,SSE,165,15.0,15.0,45,0.00,,---,0.12,VWS V14.01,2013-09-18 18:36:00,
2013-09-18 12:41:00,59.7,40.5,29.79,SSE,160,12.0,12.0,49,0.00,,---,0.12,VWS V14.01,2013-09-18 18:41:00,
2013-09-18 12:46:00,59.1,40.5,29.78,SSE,147,10.0,10.0,50,0.00,,---,0.12,VWS V14.01,2013-09-18 18:46:00,
2013-09-18 12:51:00,58.4,40.9,29.78,SSE,156,6.0,9.0,52,0.00,,---,0.12,VWS V14.01,2013-09-18 18:51:00,
2013-09-18 12:56:00,58.2,40.7,29.79,South,175,10.0,13.0,52,0.00,,---,0.12,VWS V14.01,2013-09-18 18:56:00,
2013-09-18 13:02:00,57.8,41.8,29.79,SSE,152,15.0,23.0,55,0.00,,---,0.12,VWS V14.01,2013-09-18 19:02:00,
2013-09-18 13:07:00,55.4,41.8,29.81,South,190,5.0,7.0,60,0.00,,---,0.12,VWS V14.01,2013-09-18 19:07:00,
2013-09-18 13:12:00,54.3,41.6,29.79,SSW,211,2.0,4.0,62,0.00,,---,0.12,VWS V14.01,2013-09-18 19:12:00,
2013-09-18 13:17:00,54.8,45.6,29.79,West,267,3.0,4.0,71,0.00,,---,0.12,VWS V14.01,2013-09-18 19:17:00,
2013-09-18 13:22:00,57.3,46.5,29.79,NNW,331,5.0,6.0,67,0.00,,---,0.12,VWS V14.01,2013-09-18 19:22:00,
2013-09-18 13:27:00,56.8,41.8,29.78,North,355,3.0,4.0,57,0.00,,---,0.12,VWS V14.01,2013-09-18 19:27:00,
2013-09-18 13:32:00,56.0,43.2,29.78,North,5,11.0,11.0,62,0.00,,---,0.12,VWS V14.01,2013-09-18 19:32:00,
2013-09-18 13:37:00,55.2,43.2,29.78,North,350,9.0,11.0,64,0.00,,---,0.12,VWS V14.01,2013-09-18 19:37:00,
2013-09-18 13:42:00,54.6,44.3,29.81,NNW,342,8.0,9.0,68,0.03,,---,0.15,VWS V14.01,2013-09-18 19:42:00,
2013-09-18 13:47:00,51.6,43.2,29.80,North,360,5.0,5.0,73,0.06,,---,0.18,VWS V14.01,2013-09-18 19:47:00,
2013-09-18 13:52:00,50.6,44.3,29.80,North,355,5.0,5.0,79,0.07,,---,0.19,VWS V14.01,2013-09-18 19:52:00,
2013-09-18 13:57:00,50.7,43.8,29.80,North,5,2.0,3.0,77,0.08,,---,0.20,VWS V14.01,2013-09-18 19:57:00,
2013-09-18 14:02:00,50.7,44.4,29.79,North,5,3.0,4.0,79,0.08,,---,0.20,VWS V14.01,2013-09-18 20:02:00,
2013-09-18 14:07:00,50.5,44.9,29.80,NNW,344,8.0,8.0,81,0.09,,---,0.21,VWS V14.01,2013-09-18 20:07:00,
2013-09-18 14:12:00,49.8,43.9,29.80,North,5,8.0,8.0,80,0.12,,---,0.24,VWS V14.01,2013-09-18 20:12:00,
2013-09-18 14:17:00,49.1,44.5,29.80,NNE,28,2.0,2.0,84,0.13,,---,0.25,VWS V14.01,2013-09-18 20:17:00,
2013-09-18 14:22:00,48.6,44.6,29.79,NNE,13,3.0,4.0,86,0.14,,---,0.26,VWS V14.01,2013-09-18 20:22:00,
2013-09-18 14:27:00,49.1,45.4,29.80,NNE,13,2.0,2.0,87,0.14,,---,0.26,VWS V14.01,2013-09-18 20:27:00,
2013-09-18 14:32:00,49.4,45.4,29.80,NNE,13,0.0,0.0,86,0.14,,---,0.26,VWS V14.01,2013-09-18 20:32:00,
2013-09-18 14:37:00,49.4,45.4,29.80,NNE,13,0.0,0.0,86,0.14,,---,0.26,VWS V14.01,2013-09-18 20:37:00,
2013-09-18 14:42:00,49.3,45.9,29.81,North,5,6.0,6.0,88,0.10,,---,0.26,VWS V14.01,2013-09-18 20:42:00,
2013-09-18 14:48:00,49.1,45.4,29.82,NW,304,6.0,8.0,87,0.10,,---,0.28,VWS V14.01,2013-09-18 20:48:00,
2013-09-18 14:53:00,48.7,45.3,29.80,NW,310,4.0,4.0,88,0.12,,---,0.31,VWS V14.01,2013-09-18 20:53:00,
2013-09-18 14:58:00,49.3,46.5,29.81,NW,319,1.0,3.0,90,0.12,,---,0.32,VWS V14.01,2013-09-18 20:58:00,
2013-09-18 15:03:00,50.1,47.3,29.81,NW,319,4.0,4.0,90,0.12,,---,0.32,VWS V14.01,2013-09-18 21:03:00,
2013-09-18 15:08:00,51.0,48.2,29.80,NW,317,2.0,2.0,90,0.11,,---,0.32,VWS V14.01,2013-09-18 21:08:00,
2013-09-18 15:13:00,52.1,48.7,29.80,NW,304,3.0,5.0,88,0.08,,---,0.32,VWS V14.01,2013-09-18 21:13:00,
2013-09-18 15:18:00,52.5,48.4,29.79,WSW,252,2.0,5.0,86,0.07,,---,0.32,VWS V14.01,2013-09-18 21:18:00,
2013-09-18 15:23:00,52.7,47.4,29.78,SW,236,2.0,4.0,82,0.06,,---,0.32,VWS V14.01,2013-09-18 21:23:00,
2013-09-18 15:28:00,51.6,46.3,29.78,SW,235,4.0,4.0,82,0.06,,---,0.32,VWS V14.01,2013-09-18 21:28:00,
2013-09-18 15:33:00,51.5,46.8,29.78,SW,230,3.0,3.0,84,0.06,,---,0.32,VWS V14.01,2013-09-18 21:33:00,
2013-09-18 15:38:00,51.1,45.8,29.80,SW,230,6.0,6.0,82,0.06,,---,0.32,VWS V14.01,2013-09-18 21:38:00,
2013-09-18 15:43:00,50.4,44.5,29.81,WNW,289,19.0,22.0,80,0.06,,---,0.32,VWS V14.01,2013-09-18 21:43:00,
2013-09-18 15:48:00,48.8,42.9,29.82,NW,310,7.0,8.0,80,0.06,,---,0.34,VWS V14.01,2013-09-18 21:48:00,
2013-09-18 15:53:00,47.1,41.9,29.82,North,355,11.0,15.0,82,0.09,,---,0.40,VWS V14.01,2013-09-18 21:53:00,
2013-09-18 15:58:00,46.0,41.4,29.81,NNE,15,13.0,13.0,84,0.09,,---,0.41,VWS V14.01,2013-09-18 21:58:00,
2013-09-18 16:03:00,45.7,41.5,29.82,North,5,10.0,11.0,85,0.09,,---,0.41,VWS V14.01,2013-09-18 22:03:00,
2013-09-18 16:08:00,45.8,41.9,29.82,North,5,12.0,13.0,86,0.09,,---,0.41,VWS V14.01,2013-09-18 22:08:00,
2013-09-18 16:13:00,45.9,42.0,29.83,North,5,8.0,9.0,86,0.09,,---,0.41,VWS V14.01,2013-09-18 22:13:00,
2013-09-18 16:19:00,46.1,42.5,29.84,North,351,5.0,7.0,87,0.09,,---,0.41,VWS V14.01,2013-09-18 22:19:00,
2013-09-18 16:23:00,46.1,42.8,29.85,NW,321,7.0,9.0,88,0.11,,---,0.43,VWS V14.01,2013-09-18 22:23:00,
2013-09-18 16:28:00,45.9,42.5,29.85,NNW,345,8.0,10.0,88,0.12,,---,0.44,VWS V14.01,2013-09-18 22:28:00,
2013-09-18 16:34:00,45.8,42.8,29.87,NW,305,9.0,10.0,89,0.13,,---,0.45,VWS V14.01,2013-09-18 22:34:00,
2013-09-18 16:39:00,45.8,43.0,29.86,NNW,327,11.0,11.0,90,0.16,,---,0.48,VWS V14.01,2013-09-18 22:39:00,
2013-09-18 16:44:00,45.5,43.0,29.84,North,5,8.0,11.0,91,0.17,,---,0.49,VWS V14.01,2013-09-18 22:44:00,
2013-09-18 16:49:00,45.4,42.9,29.85,North,360,8.0,12.0,91,0.15,,---,0.49,VWS V14.01,2013-09-18 22:49:00,
2013-09-18 16:54:00,45.6,42.8,29.85,NNE,13,8.0,9.0,90,0.09,,---,0.49,VWS V14.01,2013-09-18 22:54:00,
2013-09-18 16:59:00,45.8,42.8,29.86,NNE,12,7.0,7.0,89,0.08,,---,0.49,VWS V14.01,2013-09-18 22:59:00,
2013-09-18 17:04:00,46.0,43.2,29.88,North,5,5.0,5.0,90,0.09,,---,0.50,VWS V14.01,2013-09-18 23:04:00,
2013-09-18 17:09:00,46.0,43.5,29.89,NNW,344,6.0,7.0,91,0.10,,---,0.51,VWS V14.01,2013-09-18 23:09:00,
2013-09-18 17:14:00,45.8,43.3,29.90,NNW,344,3.0,5.0,91,0.12,,---,0.53,VWS V14.01,2013-09-18 23:14:00,
2013-09-18 17:19:00,45.6,43.1,29.90,NNW,344,0.0,3.0,91,0.14,,---,0.55,VWS V14.01,2013-09-18 23:19:00,
2013-09-18 17:24:00,45.5,43.0,29.90,NNW,344,4.0,4.0,91,0.14,,---,0.56,VWS V14.01,2013-09-18 23:24:00,
2013-09-18 17:29:00,45.2,42.7,29.89,North,5,7.0,7.0,91,0.14,,---,0.58,VWS V14.01,2013-09-18 23:29:00,
2013-09-18 17:34:00,45.0,42.5,29.89,NNE,19,6.0,7.0,91,0.15,,---,0.60,VWS V14.01,2013-09-18 23:34:00,
2013-09-18 17:39:00,44.9,42.2,29.90,NNE,19,4.0,4.0,90,0.13,,---,0.61,VWS V14.01,2013-09-18 23:39:00,
2013-09-18 17:44:00,44.9,42.2,29.89,NNE,19,5.0,6.0,90,0.13,,---,0.62,VWS V14.01,2013-09-18 23:44:00,
2013-09-18 17:49:00,45.0,42.5,29.90,NNE,17,3.0,4.0,91,0.14,,---,0.63,VWS V14.01,2013-09-18 23:49:00,
2013-09-18 17:54:00,45.2,42.7,29.91,North,351,5.0,7.0,91,0.14,,---,0.63,VWS V14.01,2013-09-18 23:54:00,
2013-09-18 17:59:00,45.2,42.7,29.91,NNW,342,7.0,7.0,91,0.15,,---,0.64,VWS V14.01,2013-09-18 23:59:00,
2013-09-18 18:04:00,45.2,42.7,29.92,NNW,341,7.0,10.0,91,0.15,,---,0.65,VWS V14.01,2013-09-19 00:04:00,
2013-09-18 18:09:00,44.9,41.9,29.90,NNE,22,11.0,12.0,89,0.15,,---,0.66,VWS V14.01,2013-09-19 00:09:00,
2013-09-18 18:14:00,44.7,41.1,29.89,NNE,30,9.0,11.0,87,0.16,,---,0.69,VWS V14.01,2013-09-19 00:14:00,
2013-09-18 18:19:00,44.6,41.0,29.89,NNE,13,6.0,7.0,87,0.15,,---,0.69,VWS V14.01,2013-09-19 00:19:00,
2013-09-18 18:24:00,45.1,41.2,29.90,North,5,6.0,6.0,86,0.13,,---,0.69,VWS V14.01,2013-09-19 00:24:00,
2013-09-18 18:29:00,45.2,41.6,29.89,North,355,9.0,13.0,87,0.11,,---,0.69,VWS V14.01,2013-09-19 00:29:00,
2013-09-18 18:34:00,45.2,41.3,29.88,NNE,21,9.0,9.0,86,0.09,,---,0.69,VWS V14.01,2013-09-19 00:34:00,
2013-09-18 18:39:00,45.3,41.7,29.89,NNE,24,2.0,2.0,87,0.08,,---,0.69,VWS V14.01,2013-09-19 00:39:00,
2013-09-18 18:44:00,45.3,42.5,29.89,NNE,24,5.0,5.0,90,0.07,,---,0.69,VWS V14.01,2013-09-19 00:44:00,
2013-09-18 18:49:00,45.2,42.5,29.89,East,97,7.0,7.0,90,0.06,,---,0.69,VWS V14.01,2013-09-19 00:49:00,
2013-09-18 18:54:00,45.0,42.2,29.88,East,100,5.0,7.0,90,0.06,,---,0.69,VWS V14.01,2013-09-19 00:54:00,
2013-09-18 18:59:00,44.9,42.2,29.88,ESE,122,4.0,5.0,90,0.05,,---,0.69,VWS V14.01,2013-09-19 00:59:00,
2013-09-18 19:04:00,44.7,42.0,29.88,ESE,123,0.0,1.0,90,0.05,,---,0.69,VWS V14.01,2013-09-19 01:04:00,
2013-09-18 19:09:00,44.6,41.8,29.89,ESE,123,1.0,1.0,90,0.03,,---,0.69,VWS V14.01,2013-09-19 01:09:00,
2013-09-18 19:14:00,44.4,41.7,29.89,ESE,123,4.0,5.0,90,0.00,,---,0.69,VWS V14.01,2013-09-19 01:14:00,
2013-09-18 19:19:00,44.1,41.4,29.89,NE,55,2.0,3.0,90,0.00,,---,0.69,VWS V14.01,2013-09-19 01:19:00,
2013-09-18 19:24:00,43.7,41.0,29.89,NE,55,2.0,3.0,90,0.00,,---,0.69,VWS V14.01,2013-09-19 01:24:00,
2013-09-18 19:29:00,43.4,40.7,29.88,NE,55,2.0,2.0,90,0.00,,---,0.69,VWS V14.01,2013-09-19 01:29:00,
2013-09-18 19:34:00,43.0,40.3,29.89,NE,55,1.0,1.0,90,0.00,,---,0.69,VWS V14.01,2013-09-19 01:34:00,
2013-09-18 19:39:00,42.9,40.5,29.90,ENE,66,0.0,0.0,91,0.00,,---,0.69,VWS V14.01,2013-09-19 01:39:00,
2013-09-18 19:44:00,42.9,40.7,29.89,ENE,66,0.0,0.0,92,0.00,,---,0.69,VWS V14.01,2013-09-19 01:44:00,
2013-09-18 19:49:00,42.9,40.7,29.90,ENE,66,0.0,0.0,92,0.00,,---,0.69,VWS V14.01,2013-09-19 01:49:00,
2013-09-18 19:54:00,42.8,40.6,29.90,ENE,66,0.0,0.0,92,0.00,,---,0.69,VWS V14.01,2013-09-19 01:54:00,
2013-09-18 19:59:00,42.8,40.6,29.91,ENE,66,4.0,4.0,92,0.00,,---,0.69,VWS V14.01,2013-09-19 01:59:00,
2013-09-18 20:04:00,42.5,40.3,29.91,ENE,65,4.0,4.0,92,0.00,,---,0.69,VWS V14.01,2013-09-19 02:04:00,
2013-09-18 20:09:00,42.4,40.2,29.91,NNW,343,5.0,7.0,92,0.00,,---,0.69,VWS V14.01,2013-09-19 02:09:00,
2013-09-18 20:14:00,42.4,40.2,29.90,NNW,331,5.0,7.0,92,0.00,,---,0.69,VWS V14.01,2013-09-19 02:14:00,
2013-09-18 20:19:00,42.4,40.2,29.91,NNW,329,8.0,8.0,92,0.00,,---,0.69,VWS V14.01,2013-09-19 02:19:00,
2013-09-18 20:25:00,42.5,40.3,29.91,NNW,329,2.0,3.0,92,0.00,,---,0.69,VWS V14.01,2013-09-19 02:25:00,
2013-09-18 20:30:00,42.5,40.3,29.91,NNW,329,0.0,0.0,92,0.00,,---,0.69,VWS V14.01,2013-09-19 02:30:00,
2013-09-18 20:35:00,42.4,40.2,29.92,NNW,328,4.0,4.0,92,0.00,,---,0.69,VWS V14.01,2013-09-19 02:35:00,
2013-09-18 20:40:00,42.3,40.2,29.91,NNW,327,0.0,0.0,92,0.00,,---,0.69,VWS V14.01,2013-09-19 02:40:00,
2013-09-18 20:45:00,42.2,40.0,29.91,NNW,327,1.0,1.0,92,0.00,,---,0.69,VWS V14.01,2013-09-19 02:45:00,
2013-09-18 20:50:00,41.9,39.8,29.92,NNW,327,0.0,2.0,92,0.00,,---,0.69,VWS V14.01,2013-09-19 02:50:00,
2013-09-18 20:55:00,41.6,39.5,29.92,NNW,327,4.0,5.0,92,0.00,,---,0.69,VWS V14.01,2013-09-19 02:55:00,
2013-09-18 21:00:00,41.3,39.2,29.92,NNW,327,6.0,6.0,92,0.00,,---,0.69,VWS V14.01,2013-09-19 03:00:00,
2013-09-18 21:05:00,41.1,39.0,29.92,NNW,327,2.0,5.0,92,0.00,,---,0.69,VWS V14.01,2013-09-19 03:05:00,
2013-09-18 21:10:00,40.8,38.4,29.92,NNW,327,3.0,3.0,91,0.00,,---,0.69,VWS V14.01,2013-09-19 03:10:00,
2013-09-18 21:15:00,40.5,38.1,29.93,NNW,327,2.0,3.0,91,0.00,,---,0.69,VWS V14.01,2013-09-19 03:15:00,
2013-09-18 21:20:00,40.4,38.3,29.93,NNW,327,0.0,0.0,92,0.00,,---,0.69,VWS V14.01,2013-09-19 03:20:00,
2013-09-18 21:25:00,40.4,38.5,29.93,NNW,327,0.0,0.0,93,0.00,,---,0.69,VWS V14.01,2013-09-19 03:25:00,
2013-09-18 21:30:00,40.5,38.6,29.92,NNW,327,3.0,3.0,93,0.00,,---,0.69,VWS V14.01,2013-09-19 03:30:00,
2013-09-18 21:35:00,40.6,38.7,29.93,NNW,327,0.0,0.0,93,0.00,,---,0.69,VWS V14.01,2013-09-19 03:35:00,
2013-09-18 21:40:00,40.8,39.2,29.92,NNW,327,3.0,4.0,94,0.00,,---,0.69,VWS V14.01,2013-09-19 03:40:00,
2013-09-18 21:45:00,41.0,40.7,29.92,NNW,327,0.0,0.0,99,0.00,,---,0.69,VWS V14.01,2013-09-19 03:45:00,
2013-09-18 21:50:00,41.1,39.5,29.93,NNW,327,0.0,0.0,94,0.00,,---,0.69,VWS V14.01,2013-09-19 03:50:00,
2013-09-18 21:56:00,41.1,39.5,29.93,NNW,327,0.0,0.0,94,0.00,,---,0.69,VWS V14.01,2013-09-19 03:56:00,
2013-09-18 22:00:00,41.1,39.5,29.93,NNW,327,0.0,0.0,94,0.00,,---,0.69,VWS V14.01,2013-09-19 04:00:00,
2013-09-18 22:01:00,41.1,39.5,29.93,NNW,327,0.0,0.0,94,0.00,,---,0.69,VWS V14.01,2013-09-19 04:01:00,
2013-09-18 22:06:00,41.1,39.5,29.92,NNW,327,0.0,0.0,94,0.00,,---,0.69,VWS V14.01,2013-09-19 04:06:00,
2013-09-18 22:08:00,41.1,39.5,29.93,NNW,327,0.0,0.0,94,0.00,,---,0.69,VWS V14.01,2013-09-19 04:08:00,
2013-09-18 22:13:00,41.0,39.4,29.92,NNW,327,0.0,0.0,94,0.00,,---,0.69,VWS V14.01,2013-09-19 04:13:00,
2013-09-18 22:18:00,40.9,39.3,29.92,NNW,327,0.0,0.0,94,0.00,,---,0.69,VWS V14.01,2013-09-19 04:18:00,
2013-09-18 22:23:00,40.9,39.3,29.93,NNW,327,2.0,2.0,94,0.00,,---,0.69,VWS V14.01,2013-09-19 04:23:00,
2013-09-18 22:28:00,40.9,39.3,29.92,NNW,327,4.0,5.0,94,0.00,,---,0.69,VWS V14.01,2013-09-19 04:28:00,
2013-09-18 22:33:00,40.8,39.2,29.93,NNW,327,0.0,0.0,94,0.00,,---,0.69,VWS V14.01,2013-09-19 04:33:00,
2013-09-18 22:38:00,40.7,39.1,29.94,NNW,327,0.0,0.0,94,0.00,,---,0.69,VWS V14.01,2013-09-19 04:38:00,
2013-09-18 22:43:00,40.8,39.2,29.93,NNW,327,4.0,4.0,94,0.00,,---,0.69,VWS V14.01,2013-09-19 04:43:00,
2013-09-18 22:48:00,40.6,39.0,29.94,NNW,327,0.0,0.0,94,0.00,,---,0.69,VWS V14.01,2013-09-19 04:48:00,
2013-09-18 22:53:00,40.6,39.0,29.94,NNW,327,0.0,0.0,94,0.00,,---,0.69,VWS V14.01,2013-09-19 04:53:00,
2013-09-18 22:58:00,40.6,39.0,29.94,NNW,327,0.0,2.0,94,0.00,,---,0.69,VWS V14.01,2013-09-19 04:58:00,
2013-09-18 23:03:00,40.7,39.1,29.95,NNW,327,0.0,0.0,94,0.00,,---,0.69,VWS V14.01,2013-09-19 05:03:00,
2013-09-18 23:08:00,40.8,39.5,29.94,NNW,327,0.0,0.0,95,0.00,,---,0.69,VWS V14.01,2013-09-19 05:08:00,
2013-09-18 23:13:00,40.9,39.6,29.94,NNW,327,0.0,0.0,95,0.00,,---,0.69,VWS V14.01,2013-09-19 05:13:00,
2013-09-18 23:18:00,41.0,39.7,29.94,NNW,327,1.0,1.0,95,0.00,,---,0.69,VWS V14.01,2013-09-19 05:18:00,
2013-09-18 23:23:00,41.2,39.9,29.93,NNW,327,0.0,2.0,95,0.00,,---,0.69,VWS V14.01,2013-09-19 05:23:00,
2013-09-18 23:28:00,41.3,40.0,29.94,NNW,327,4.0,4.0,95,0.00,,---,0.69,VWS V14.01,2013-09-19 05:28:00,
2013-09-18 23:33:00,41.4,40.1,29.93,SSW,192,3.0,7.0,95,0.00,,---,0.69,VWS V14.01,2013-09-19 05:33:00,
2013-09-18 23:38:00,41.5,40.2,29.94,SE,128,4.0,5.0,95,0.00,,---,0.69,VWS V14.01,2013-09-19 05:38:00,
2013-09-18 23:43:00,41.5,40.2,29.94,ESE,121,3.0,4.0,95,0.00,,---,0.69,VWS V14.01,2013-09-19 05:43:00,
2013-09-18 23:48:00,41.5,40.2,29.94,ESE,121,0.0,0.0,95,0.00,,---,0.69,VWS V14.01,2013-09-19 05:48:00,
2013-09-18 23:53:00,41.5,40.2,29.93,ESE,121,0.0,0.0,95,0.00,,---,0.69,VWS V14.01,2013-09-19 05:53:00,
2013-09-18 23:58:00,41.5,40.2,29.93,ESE,121,1.0,2.0,95,0.00,,---,0.69,VWS V14.01,2013-09-19 05:58:00,